sensor_id;sensor_type;location;lat;lon;timestamp;pressure;altitude;pressure_sealevel;temperature;humidity
9855;BME280;4966;48.112;9.282;2023-06-24T00:01:23;95606.31;;;13.97;82.46
9855;BME280;4966;48.112;9.282;2023-06-24T00:03:48;95607.50;;;14.09;82.99
9855;BME280;4966;48.112;9.282;2023-06-24T00:06:14;95613.75;;;14.09;81.64
9855;BME280;4966;48.112;9.282;2023-06-24T00:08:47;95617.38;;;14.01;81.96
9855;BME280;4966;48.112;9.282;2023-06-24T00:11:13;95609.94;;;13.68;82.73
9855;BME280;4966;48.112;9.282;2023-06-24T00:13:42;95612.28;;;13.57;83.93
9855;BME280;4966;48.112;9.282;2023-06-24T00:16:07;95620.16;;;13.80;83.00
9855;BME280;4966;48.112;9.282;2023-06-24T00:18:33;95616.41;;;13.85;82.91
9855;BME280;4966;48.112;9.282;2023-06-24T00:20:59;95612.53;;;13.86;82.82
9855;BME280;4966;48.112;9.282;2023-06-24T00:23:26;95618.59;;;13.91;82.44
9855;BME280;4966;48.112;9.282;2023-06-24T00:25:52;95611.16;;;13.79;83.18
9855;BME280;4966;48.112;9.282;2023-06-24T00:28:18;95607.78;;;13.95;81.93
9855;BME280;4966;48.112;9.282;2023-06-24T00:30:44;95615.88;;;13.70;82.47
9855;BME280;4966;48.112;9.282;2023-06-24T00:33:09;95630.88;;;13.64;83.01
9855;BME280;4966;48.112;9.282;2023-06-24T00:35:36;95621.31;;;13.58;83.67
9855;BME280;4966;48.112;9.282;2023-06-24T00:38:04;95628.41;;;13.71;83.25
9855;BME280;4966;48.112;9.282;2023-06-24T00:40:29;95623.81;;;13.84;82.77
9855;BME280;4966;48.112;9.282;2023-06-24T00:42:55;95624.88;;;13.92;82.01
9855;BME280;4966;48.112;9.282;2023-06-24T00:45:22;95626.56;;;13.84;81.74
9855;BME280;4966;48.112;9.282;2023-06-24T00:47:47;95617.34;;;13.89;81.07
9855;BME280;4966;48.112;9.282;2023-06-24T00:50:14;95620.72;;;13.86;81.07
9855;BME280;4966;48.112;9.282;2023-06-24T00:52:40;95612.00;;;13.71;81.17
9855;BME280;4966;48.112;9.282;2023-06-24T00:55:09;95604.00;;;13.66;81.58
9855;BME280;4966;48.112;9.282;2023-06-24T00:57:35;95611.53;;;13.69;81.90
9855;BME280;4966;48.112;9.282;2023-06-24T01:00:02;95606.00;;;13.78;81.12
9855;BME280;4966;48.112;9.282;2023-06-24T01:02:33;95603.81;;;13.71;81.04
9855;BME280;4966;48.112;9.282;2023-06-24T01:05:02;95600.50;;;13.66;81.16
9855;BME280;4966;48.112;9.282;2023-06-24T01:07:29;95595.69;;;13.63;81.96
9855;BME280;4966;48.112;9.282;2023-06-24T01:09:56;95596.97;;;13.65;81.97
9855;BME280;4966;48.112;9.282;2023-06-24T01:12:22;95600.06;;;13.55;82.09
9855;BME280;4966;48.112;9.282;2023-06-24T01:14:47;95597.03;;;13.56;82.40
9855;BME280;4966;48.112;9.282;2023-06-24T01:17:15;95592.75;;;13.68;82.19
9855;BME280;4966;48.112;9.282;2023-06-24T01:26:07;95593.34;;;13.73;81.15
9855;BME280;4966;48.112;9.282;2023-06-24T01:34:37;95592.63;;;13.43;82.41
9855;BME280;4966;48.112;9.282;2023-06-24T01:37:17;95587.72;;;13.36;83.10
9855;BME280;4966;48.112;9.282;2023-06-24T01:39:47;95590.34;;;13.45;82.56
9855;BME280;4966;48.112;9.282;2023-06-24T01:42:16;95587.22;;;13.55;82.23
9855;BME280;4966;48.112;9.282;2023-06-24T01:44:43;95579.69;;;13.52;81.70
9855;BME280;4966;48.112;9.282;2023-06-24T01:47:10;95581.63;;;13.52;81.95
9855;BME280;4966;48.112;9.282;2023-06-24T01:49:40;95577.63;;;13.49;80.98
9855;BME280;4966;48.112;9.282;2023-06-24T01:52:08;95580.06;;;13.21;82.34
9855;BME280;4966;48.112;9.282;2023-06-24T01:54:35;95573.13;;;13.03;84.26
9855;BME280;4966;48.112;9.282;2023-06-24T01:57:02;95571.78;;;13.09;84.30
9855;BME280;4966;48.112;9.282;2023-06-24T01:59:29;95574.75;;;13.25;83.60
9855;BME280;4966;48.112;9.282;2023-06-24T02:01:55;95585.25;;;13.14;83.18
9855;BME280;4966;48.112;9.282;2023-06-24T02:04:23;95574.53;;;13.09;83.46
9855;BME280;4966;48.112;9.282;2023-06-24T02:06:50;95572.94;;;13.08;83.56
9855;BME280;4966;48.112;9.282;2023-06-24T02:09:19;95574.41;;;13.05;84.14
9855;BME280;4966;48.112;9.282;2023-06-24T02:11:46;95578.94;;;13.22;83.14
9855;BME280;4966;48.112;9.282;2023-06-24T02:14:14;95562.88;;;13.20;82.82
9855;BME280;4966;48.112;9.282;2023-06-24T02:16:41;95564.19;;;13.14;82.60
9855;BME280;4966;48.112;9.282;2023-06-24T02:19:09;95571.50;;;13.02;83.24
9855;BME280;4966;48.112;9.282;2023-06-24T02:21:37;95572.06;;;13.16;82.66
9855;BME280;4966;48.112;9.282;2023-06-24T02:24:04;95569.53;;;13.11;81.90
9855;BME280;4966;48.112;9.282;2023-06-24T02:26:30;95569.94;;;13.01;81.93
9855;BME280;4966;48.112;9.282;2023-06-24T02:28:56;95568.31;;;12.99;82.89
9855;BME280;4966;48.112;9.282;2023-06-24T02:31:22;95578.44;;;12.99;83.25
9855;BME280;4966;48.112;9.282;2023-06-24T02:33:47;95571.50;;;13.02;83.08
9855;BME280;4966;48.112;9.282;2023-06-24T02:36:13;95558.38;;;12.74;84.52
9855;BME280;4966;48.112;9.282;2023-06-24T02:38:38;95567.00;;;12.76;84.08
9855;BME280;4966;48.112;9.282;2023-06-24T02:41:03;95557.38;;;12.79;84.12
9855;BME280;4966;48.112;9.282;2023-06-24T02:43:30;95559.34;;;12.69;84.46
9855;BME280;4966;48.112;9.282;2023-06-24T02:45:58;95559.69;;;12.68;84.87
9855;BME280;4966;48.112;9.282;2023-06-24T02:48:25;95564.09;;;12.81;84.11
9855;BME280;4966;48.112;9.282;2023-06-24T02:50:51;95568.81;;;12.72;84.31
9855;BME280;4966;48.112;9.282;2023-06-24T02:53:17;95568.53;;;12.65;83.28
9855;BME280;4966;48.112;9.282;2023-06-24T02:55:42;95570.53;;;12.47;83.78
9855;BME280;4966;48.112;9.282;2023-06-24T02:58:09;95582.97;;;12.36;84.86
9855;BME280;4966;48.112;9.282;2023-06-24T03:00:35;95569.44;;;12.39;84.50
9855;BME280;4966;48.112;9.282;2023-06-24T03:03:03;95578.47;;;12.31;85.31
9855;BME280;4966;48.112;9.282;2023-06-24T03:05:30;95577.94;;;12.38;85.56
9855;BME280;4966;48.112;9.282;2023-06-24T03:07:56;95588.03;;;12.46;85.97
9855;BME280;4966;48.112;9.282;2023-06-24T03:10:25;95593.97;;;12.48;86.04
9855;BME280;4966;48.112;9.282;2023-06-24T03:12:52;95591.72;;;12.50;85.46
9855;BME280;4966;48.112;9.282;2023-06-24T03:15:17;95580.19;;;12.44;86.20
9855;BME280;4966;48.112;9.282;2023-06-24T03:17:43;95585.72;;;12.56;85.88
9855;BME280;4966;48.112;9.282;2023-06-24T03:20:08;95581.69;;;12.63;85.18
9855;BME280;4966;48.112;9.282;2023-06-24T03:22:34;95601.28;;;12.65;84.11
9855;BME280;4966;48.112;9.282;2023-06-24T03:25:00;95588.25;;;12.70;83.47
9855;BME280;4966;48.112;9.282;2023-06-24T03:27:25;95586.03;;;12.64;84.20
9855;BME280;4966;48.112;9.282;2023-06-24T03:29:50;95578.00;;;12.67;83.76
9855;BME280;4966;48.112;9.282;2023-06-24T03:32:15;95590.09;;;12.58;84.55
9855;BME280;4966;48.112;9.282;2023-06-24T03:34:41;95590.72;;;12.54;84.85
9855;BME280;4966;48.112;9.282;2023-06-24T03:37:06;95582.94;;;12.74;83.57
9855;BME280;4966;48.112;9.282;2023-06-24T03:39:32;95591.06;;;12.83;82.50
9855;BME280;4966;48.112;9.282;2023-06-24T03:41:57;95595.91;;;12.77;81.92
9855;BME280;4966;48.112;9.282;2023-06-24T03:44:22;95599.84;;;12.59;82.92
9855;BME280;4966;48.112;9.282;2023-06-24T03:46:48;95600.03;;;12.53;83.76
9855;BME280;4966;48.112;9.282;2023-06-24T03:49:13;95602.66;;;12.80;82.86
9855;BME280;4966;48.112;9.282;2023-06-24T03:51:38;95602.00;;;12.83;82.34
9855;BME280;4966;48.112;9.282;2023-06-24T03:54:05;95615.69;;;12.74;82.86
9855;BME280;4966;48.112;9.282;2023-06-24T03:56:30;95608.09;;;12.88;82.69
9855;BME280;4966;48.112;9.282;2023-06-24T03:58:55;95609.34;;;12.91;82.38
9855;BME280;4966;48.112;9.282;2023-06-24T04:01:21;95607.53;;;12.95;82.04
9855;BME280;4966;48.112;9.282;2023-06-24T04:03:46;95607.66;;;13.07;82.04
9855;BME280;4966;48.112;9.282;2023-06-24T04:06:12;95605.00;;;13.19;80.91
9855;BME280;4966;48.112;9.282;2023-06-24T04:08:37;95607.91;;;13.14;81.50
9855;BME280;4966;48.112;9.282;2023-06-24T04:11:09;95612.38;;;13.19;81.39
9855;BME280;4966;48.112;9.282;2023-06-24T04:13:35;95611.25;;;13.20;81.70
9855;BME280;4966;48.112;9.282;2023-06-24T04:16:00;95618.09;;;13.35;81.51
9855;BME280;4966;48.112;9.282;2023-06-24T04:18:25;95615.78;;;13.46;81.26
9855;BME280;4966;48.112;9.282;2023-06-24T04:20:51;95621.03;;;13.51;79.46
9855;BME280;4966;48.112;9.282;2023-06-24T04:23:16;95628.56;;;13.54;79.49
9855;BME280;4966;48.112;9.282;2023-06-24T04:25:41;95621.78;;;13.60;80.30
9855;BME280;4966;48.112;9.282;2023-06-24T04:28:08;95621.63;;;13.77;79.99
9855;BME280;4966;48.112;9.282;2023-06-24T04:30:33;95621.41;;;13.82;79.91
9855;BME280;4966;48.112;9.282;2023-06-24T04:33:01;95624.19;;;13.95;79.39
9855;BME280;4966;48.112;9.282;2023-06-24T04:35:26;95622.50;;;14.02;80.26
9855;BME280;4966;48.112;9.282;2023-06-24T04:37:52;95626.34;;;14.22;79.29
9855;BME280;4966;48.112;9.282;2023-06-24T04:40:17;95635.28;;;14.44;79.33
9855;BME280;4966;48.112;9.282;2023-06-24T04:42:44;95637.06;;;14.73;76.37
9855;BME280;4966;48.112;9.282;2023-06-24T04:45:09;95627.94;;;15.06;75.64
9855;BME280;4966;48.112;9.282;2023-06-24T04:47:35;95630.09;;;15.37;74.45
9855;BME280;4966;48.112;9.282;2023-06-24T04:50:01;95634.22;;;15.84;71.29
9855;BME280;4966;48.112;9.282;2023-06-24T04:52:26;95632.81;;;16.18;70.39
9855;BME280;4966;48.112;9.282;2023-06-24T04:54:51;95629.88;;;16.55;68.52
9855;BME280;4966;48.112;9.282;2023-06-24T04:57:30;95634.19;;;16.84;67.98
9855;BME280;4966;48.112;9.282;2023-06-24T04:59:57;95641.72;;;17.03;65.87
9855;BME280;4966;48.112;9.282;2023-06-24T05:02:23;95648.06;;;17.23;66.25
9855;BME280;4966;48.112;9.282;2023-06-24T05:04:49;95643.06;;;17.80;64.14
9855;BME280;4966;48.112;9.282;2023-06-24T05:07:15;95637.22;;;18.20;61.95
9855;BME280;4966;48.112;9.282;2023-06-24T05:09:41;95637.72;;;17.87;63.46
9855;BME280;4966;48.112;9.282;2023-06-24T05:12:08;95635.41;;;18.28;62.36
9855;BME280;4966;48.112;9.282;2023-06-24T05:14:36;95637.94;;;18.17;63.36
9855;BME280;4966;48.112;9.282;2023-06-24T05:17:05;95642.47;;;18.29;62.46
9855;BME280;4966;48.112;9.282;2023-06-24T05:19:30;95643.22;;;18.26;62.62
9855;BME280;4966;48.112;9.282;2023-06-24T05:21:56;95639.97;;;18.20;64.57
9855;BME280;4966;48.112;9.282;2023-06-24T05:24:21;95633.78;;;18.07;65.83
9855;BME280;4966;48.112;9.282;2023-06-24T05:26:50;95641.84;;;17.97;66.13
9855;BME280;4966;48.112;9.282;2023-06-24T05:29:16;95637.94;;;17.98;65.71
9855;BME280;4966;48.112;9.282;2023-06-24T05:31:41;95641.34;;;17.91;66.77
9855;BME280;4966;48.112;9.282;2023-06-24T05:34:07;95635.88;;;17.75;67.59
9855;BME280;4966;48.112;9.282;2023-06-24T05:36:33;95639.59;;;17.83;67.40
9855;BME280;4966;48.112;9.282;2023-06-24T05:38:58;95637.72;;;18.06;66.41
9855;BME280;4966;48.112;9.282;2023-06-24T05:41:23;95639.84;;;18.13;66.96
9855;BME280;4966;48.112;9.282;2023-06-24T05:43:49;95642.16;;;18.11;67.12
9855;BME280;4966;48.112;9.282;2023-06-24T05:46:14;95635.47;;;17.93;68.32
9855;BME280;4966;48.112;9.282;2023-06-24T05:48:40;95640.53;;;18.30;67.42
9855;BME280;4966;48.112;9.282;2023-06-24T05:51:05;95648.03;;;18.52;66.08
9855;BME280;4966;48.112;9.282;2023-06-24T05:53:30;95639.91;;;18.59;66.12
9855;BME280;4966;48.112;9.282;2023-06-24T05:55:56;95643.22;;;18.68;65.94
9855;BME280;4966;48.112;9.282;2023-06-24T05:58:21;95645.91;;;18.84;64.26
9855;BME280;4966;48.112;9.282;2023-06-24T06:00:46;95645.59;;;18.89;65.27
9855;BME280;4966;48.112;9.282;2023-06-24T06:03:11;95644.53;;;18.98;62.60
9855;BME280;4966;48.112;9.282;2023-06-24T06:05:37;95649.13;;;19.13;64.58
9855;BME280;4966;48.112;9.282;2023-06-24T06:08:02;95642.94;;;19.46;62.15
9855;BME280;4966;48.112;9.282;2023-06-24T06:10:28;95638.72;;;19.56;61.70
9855;BME280;4966;48.112;9.282;2023-06-24T06:12:53;95645.91;;;19.34;63.38
9855;BME280;4966;48.112;9.282;2023-06-24T06:15:19;95648.63;;;19.84;62.61
9855;BME280;4966;48.112;9.282;2023-06-24T06:17:46;95644.13;;;19.72;60.29
9855;BME280;4966;48.112;9.282;2023-06-24T06:20:11;95642.81;;;19.92;59.20
9855;BME280;4966;48.112;9.282;2023-06-24T06:22:36;95648.94;;;20.09;60.27
9855;BME280;4966;48.112;9.282;2023-06-24T06:25:07;95641.78;;;20.04;58.53
9855;BME280;4966;48.112;9.282;2023-06-24T06:27:33;95640.59;;;19.75;60.02
9855;BME280;4966;48.112;9.282;2023-06-24T06:29:59;95638.88;;;20.24;59.71
9855;BME280;4966;48.112;9.282;2023-06-24T06:32:24;95645.97;;;20.58;57.95
9855;BME280;4966;48.112;9.282;2023-06-24T06:34:50;95641.72;;;20.68;56.17
9855;BME280;4966;48.112;9.282;2023-06-24T06:37:15;95642.78;;;20.56;54.37
9855;BME280;4966;48.112;9.282;2023-06-24T06:39:40;95643.88;;;20.48;56.51
9855;BME280;4966;48.112;9.282;2023-06-24T06:42:06;95642.50;;;20.65;54.39
9855;BME280;4966;48.112;9.282;2023-06-24T06:44:31;95644.84;;;20.63;54.53
9855;BME280;4966;48.112;9.282;2023-06-24T06:46:56;95648.56;;;20.44;55.85
9855;BME280;4966;48.112;9.282;2023-06-24T06:49:22;95653.41;;;20.54;53.59
9855;BME280;4966;48.112;9.282;2023-06-24T06:51:47;95650.16;;;20.82;54.16
9855;BME280;4966;48.112;9.282;2023-06-24T06:54:13;95646.97;;;20.77;53.39
9855;BME280;4966;48.112;9.282;2023-06-24T06:56:38;95649.66;;;20.73;54.90
9855;BME280;4966;48.112;9.282;2023-06-24T06:59:04;95643.28;;;20.66;56.04
9855;BME280;4966;48.112;9.282;2023-06-24T07:01:30;95639.91;;;20.83;55.27
9855;BME280;4966;48.112;9.282;2023-06-24T07:03:55;95644.03;;;21.03;54.44
9855;BME280;4966;48.112;9.282;2023-06-24T07:06:20;95644.75;;;20.93;53.47
9855;BME280;4966;48.112;9.282;2023-06-24T07:08:46;95643.69;;;20.64;53.65
9855;BME280;4966;48.112;9.282;2023-06-24T07:11:11;95643.22;;;20.58;54.98
9855;BME280;4966;48.112;9.282;2023-06-24T07:13:36;95635.56;;;20.48;56.16
9855;BME280;4966;48.112;9.282;2023-06-24T07:16:02;95641.50;;;20.88;56.06
9855;BME280;4966;48.112;9.282;2023-06-24T07:18:27;95647.72;;;20.74;54.64
9855;BME280;4966;48.112;9.282;2023-06-24T07:20:55;95635.19;;;21.32;53.16
9855;BME280;4966;48.112;9.282;2023-06-24T07:23:21;95644.84;;;21.56;53.24
9855;BME280;4966;48.112;9.282;2023-06-24T07:25:46;95639.09;;;21.27;56.07
9855;BME280;4966;48.112;9.282;2023-06-24T07:28:12;95641.13;;;21.37;52.90
9855;BME280;4966;48.112;9.282;2023-06-24T07:30:37;95642.69;;;21.31;54.47
9855;BME280;4966;48.112;9.282;2023-06-24T07:33:02;95645.25;;;21.06;54.50
9855;BME280;4966;48.112;9.282;2023-06-24T07:35:33;95641.25;;;21.00;53.76
9855;BME280;4966;48.112;9.282;2023-06-24T07:38:00;95646.72;;;20.93;54.55
9855;BME280;4966;48.112;9.282;2023-06-24T07:40:25;95641.84;;;21.27;54.10
9855;BME280;4966;48.112;9.282;2023-06-24T07:42:50;95641.44;;;21.25;54.44
9855;BME280;4966;48.112;9.282;2023-06-24T07:45:16;95633.53;;;21.79;53.29
9855;BME280;4966;48.112;9.282;2023-06-24T07:47:41;95636.28;;;21.23;52.71
9855;BME280;4966;48.112;9.282;2023-06-24T07:50:06;95637.81;;;21.69;51.60
9855;BME280;4966;48.112;9.282;2023-06-24T07:52:32;95632.84;;;21.37;54.24
9855;BME280;4966;48.112;9.282;2023-06-24T07:54:58;95636.88;;;21.43;52.45
9855;BME280;4966;48.112;9.282;2023-06-24T07:57:23;95634.16;;;21.51;49.94
9855;BME280;4966;48.112;9.282;2023-06-24T07:59:49;95625.72;;;22.02;50.45
9855;BME280;4966;48.112;9.282;2023-06-24T08:02:14;95629.00;;;22.22;50.16
9855;BME280;4966;48.112;9.282;2023-06-24T08:04:39;95624.06;;;21.87;49.86
9855;BME280;4966;48.112;9.282;2023-06-24T08:07:05;95624.28;;;22.34;50.04
9855;BME280;4966;48.112;9.282;2023-06-24T08:09:30;95622.84;;;21.77;49.93
9855;BME280;4966;48.112;9.282;2023-06-24T08:11:55;95623.91;;;22.42;51.66
9855;BME280;4966;48.112;9.282;2023-06-24T08:14:21;95623.25;;;22.99;48.94
9855;BME280;4966;48.112;9.282;2023-06-24T08:16:46;95626.03;;;23.28;48.93
9855;BME280;4966;48.112;9.282;2023-06-24T08:19:11;95615.72;;;23.25;47.34
9855;BME280;4966;48.112;9.282;2023-06-24T08:21:37;95617.31;;;23.33;47.96
9855;BME280;4966;48.112;9.282;2023-06-24T08:24:04;95615.31;;;23.59;47.68
9855;BME280;4966;48.112;9.282;2023-06-24T08:26:29;95616.13;;;23.12;47.83
9855;BME280;4966;48.112;9.282;2023-06-24T08:28:54;95620.84;;;23.73;47.53
9855;BME280;4966;48.112;9.282;2023-06-24T08:31:57;95618.88;;;23.20;45.72
9855;BME280;4966;48.112;9.282;2023-06-24T08:34:41;95609.38;;;23.10;45.42
9855;BME280;4966;48.112;9.282;2023-06-24T08:37:07;95612.16;;;23.13;45.64
9855;BME280;4966;48.112;9.282;2023-06-24T08:39:32;95623.59;;;23.73;45.47
9855;BME280;4966;48.112;9.282;2023-06-24T08:41:58;95609.59;;;24.16;45.69
9855;BME280;4966;48.112;9.282;2023-06-24T08:44:24;95612.69;;;24.36;45.26
9855;BME280;4966;48.112;9.282;2023-06-24T08:46:49;95602.72;;;24.38;43.90
9855;BME280;4966;48.112;9.282;2023-06-24T08:52:08;95606.97;;;23.51;45.73
9855;BME280;4966;48.112;9.282;2023-06-24T08:54:36;95610.88;;;23.97;46.79
9855;BME280;4966;48.112;9.282;2023-06-24T08:57:04;95611.66;;;23.97;45.03
9855;BME280;4966;48.112;9.282;2023-06-24T08:59:32;95608.81;;;24.12;45.55
9855;BME280;4966;48.112;9.282;2023-06-24T09:01:58;95605.22;;;24.18;44.85
9855;BME280;4966;48.112;9.282;2023-06-24T09:04:24;95613.25;;;23.91;45.33
9855;BME280;4966;48.112;9.282;2023-06-24T09:06:49;95604.44;;;24.11;46.44
9855;BME280;4966;48.112;9.282;2023-06-24T09:09:21;95596.81;;;24.29;47.29
9855;BME280;4966;48.112;9.282;2023-06-24T09:11:54;95601.72;;;23.96;45.44
9855;BME280;4966;48.112;9.282;2023-06-24T09:14:21;95603.94;;;24.37;47.36
9855;BME280;4966;48.112;9.282;2023-06-24T09:16:59;95602.56;;;24.74;41.73
9855;BME280;4966;48.112;9.282;2023-06-24T09:19:27;95598.75;;;24.39;43.23
9855;BME280;4966;48.112;9.282;2023-06-24T09:22:02;95600.53;;;24.78;44.33
9855;BME280;4966;48.112;9.282;2023-06-24T09:24:30;95595.81;;;24.68;41.94
9855;BME280;4966;48.112;9.282;2023-06-24T09:26:56;95596.31;;;25.12;43.67
9855;BME280;4966;48.112;9.282;2023-06-24T09:29:26;95588.38;;;25.10;44.38
9855;BME280;4966;48.112;9.282;2023-06-24T09:31:52;95587.94;;;25.15;40.51
9855;BME280;4966;48.112;9.282;2023-06-24T09:34:19;95590.50;;;24.92;40.27
9855;BME280;4966;48.112;9.282;2023-06-24T09:36:45;95591.09;;;23.55;40.57
9855;BME280;4966;48.112;9.282;2023-06-24T09:39:11;95579.25;;;23.12;41.54
9855;BME280;4966;48.112;9.282;2023-06-24T09:41:40;95573.69;;;23.05;43.06
9855;BME280;4966;48.112;9.282;2023-06-24T09:44:12;95580.28;;;24.04;44.02
9855;BME280;4966;48.112;9.282;2023-06-24T09:46:38;95570.56;;;24.34;42.39
9855;BME280;4966;48.112;9.282;2023-06-24T09:49:04;95582.19;;;24.84;43.11
9855;BME280;4966;48.112;9.282;2023-06-24T09:51:33;95574.50;;;25.03;43.34
9855;BME280;4966;48.112;9.282;2023-06-24T09:54:05;95577.78;;;24.91;41.84
9855;BME280;4966;48.112;9.282;2023-06-24T09:56:33;95569.72;;;25.03;43.16
9855;BME280;4966;48.112;9.282;2023-06-24T09:59:00;95574.63;;;24.89;41.38
9855;BME280;4966;48.112;9.282;2023-06-24T10:01:26;95576.81;;;25.19;43.29
9855;BME280;4966;48.112;9.282;2023-06-24T10:03:53;95567.56;;;25.29;38.56
9855;BME280;4966;48.112;9.282;2023-06-24T10:06:19;95566.19;;;25.48;37.21
9855;BME280;4966;48.112;9.282;2023-06-24T10:08:44;95564.41;;;25.23;39.23
9855;BME280;4966;48.112;9.282;2023-06-24T10:11:10;95564.00;;;25.25;36.30
9855;BME280;4966;48.112;9.282;2023-06-24T10:13:36;95565.88;;;25.35;37.12
9855;BME280;4966;48.112;9.282;2023-06-24T10:16:01;95561.53;;;25.34;34.40
9855;BME280;4966;48.112;9.282;2023-06-24T10:18:38;95558.47;;;25.21;35.14
9855;BME280;4966;48.112;9.282;2023-06-24T10:21:05;95560.38;;;25.28;36.87
9855;BME280;4966;48.112;9.282;2023-06-24T10:23:52;95555.19;;;25.72;37.51
9855;BME280;4966;48.112;9.282;2023-06-24T10:26:29;95552.25;;;26.17;36.20
9855;BME280;4966;48.112;9.282;2023-06-24T10:37:11;95541.94;;;26.71;35.21
9855;BME280;4966;48.112;9.282;2023-06-24T10:44:47;95534.66;;;26.50;36.50
9855;BME280;4966;48.112;9.282;2023-06-24T10:47:13;95528.88;;;26.65;35.13
9855;BME280;4966;48.112;9.282;2023-06-24T10:49:39;95530.25;;;26.53;34.70
9855;BME280;4966;48.112;9.282;2023-06-24T10:52:07;95527.50;;;26.49;33.55
9855;BME280;4966;48.112;9.282;2023-06-24T10:54:33;95526.66;;;26.52;33.79
9855;BME280;4966;48.112;9.282;2023-06-24T10:56:58;95517.00;;;27.35;33.93
9855;BME280;4966;48.112;9.282;2023-06-24T10:59:23;95503.47;;;28.13;30.19
9855;BME280;4966;48.112;9.282;2023-06-24T11:01:52;95511.94;;;29.61;29.63
9855;BME280;4966;48.112;9.282;2023-06-24T11:04:19;95499.81;;;30.48;25.98
9855;BME280;4966;48.112;9.282;2023-06-24T11:06:58;95498.88;;;32.51;24.54
9855;BME280;4966;48.112;9.282;2023-06-24T11:09:23;95493.31;;;32.69;23.68
9855;BME280;4966;48.112;9.282;2023-06-24T11:11:48;95503.06;;;32.87;24.32
9855;BME280;4966;48.112;9.282;2023-06-24T11:14:15;95493.22;;;34.15;23.52
9855;BME280;4966;48.112;9.282;2023-06-24T11:16:41;95479.38;;;35.11;22.19
9855;BME280;4966;48.112;9.282;2023-06-24T11:19:06;95486.44;;;36.82;19.44
9855;BME280;4966;48.112;9.282;2023-06-24T11:21:31;95472.41;;;35.99;20.75
9855;BME280;4966;48.112;9.282;2023-06-24T11:24:01;95479.00;;;35.18;22.04
9855;BME280;4966;48.112;9.282;2023-06-24T11:26:26;95464.59;;;35.07;20.35
9855;BME280;4966;48.112;9.282;2023-06-24T11:28:52;95471.59;;;35.84;21.52
9855;BME280;4966;48.112;9.282;2023-06-24T11:31:17;95459.31;;;36.61;20.28
9855;BME280;4966;48.112;9.282;2023-06-24T11:33:42;95471.00;;;36.83;20.79
9855;BME280;4966;48.112;9.282;2023-06-24T11:36:17;95451.81;;;36.58;18.99
9855;BME280;4966;48.112;9.282;2023-06-24T11:38:42;95449.59;;;36.82;20.50
9855;BME280;4966;48.112;9.282;2023-06-24T11:41:08;95454.84;;;37.25;19.05
9855;BME280;4966;48.112;9.282;2023-06-24T11:43:34;95454.38;;;38.78;16.96
9855;BME280;4966;48.112;9.282;2023-06-24T11:45:59;95449.25;;;37.98;18.17
9855;BME280;4966;48.112;9.282;2023-06-24T11:48:28;95436.81;;;36.72;20.00
9855;BME280;4966;48.112;9.282;2023-06-24T11:50:54;95439.06;;;37.03;20.99
9855;BME280;4966;48.112;9.282;2023-06-24T11:53:29;95442.72;;;37.65;18.20
9855;BME280;4966;48.112;9.282;2023-06-24T11:55:56;95439.38;;;37.67;18.34
9855;BME280;4966;48.112;9.282;2023-06-24T11:58:21;95431.38;;;37.45;16.71
9855;BME280;4966;48.112;9.282;2023-06-24T12:00:48;95423.72;;;35.56;18.94
9855;BME280;4966;48.112;9.282;2023-06-24T12:03:14;95422.69;;;36.57;18.47
9855;BME280;4966;48.112;9.282;2023-06-24T12:05:40;95425.59;;;36.63;17.49
9855;BME280;4966;48.112;9.282;2023-06-24T12:08:11;95426.91;;;35.49;19.54
9855;BME280;4966;48.112;9.282;2023-06-24T12:10:38;95420.44;;;37.38;17.04
9855;BME280;4966;48.112;9.282;2023-06-24T12:13:05;95412.13;;;36.93;18.10
9855;BME280;4966;48.112;9.282;2023-06-24T12:15:31;95408.75;;;38.29;17.27
9855;BME280;4966;48.112;9.282;2023-06-24T12:17:57;95402.69;;;37.89;16.61
9855;BME280;4966;48.112;9.282;2023-06-24T12:20:24;95405.69;;;37.80;17.96
9855;BME280;4966;48.112;9.282;2023-06-24T12:22:50;95401.81;;;38.67;16.71
9855;BME280;4966;48.112;9.282;2023-06-24T12:25:16;95396.28;;;38.21;16.98
9855;BME280;4966;48.112;9.282;2023-06-24T12:27:43;95392.63;;;36.30;18.53
9855;BME280;4966;48.112;9.282;2023-06-24T12:30:09;95396.53;;;36.33;18.75
9855;BME280;4966;48.112;9.282;2023-06-24T12:32:34;95400.94;;;36.19;19.92
9855;BME280;4966;48.112;9.282;2023-06-24T12:35:00;95400.63;;;35.33;19.28
9855;BME280;4966;48.112;9.282;2023-06-24T12:37:29;95396.84;;;35.12;18.68
9855;BME280;4966;48.112;9.282;2023-06-24T12:39:55;95394.66;;;36.45;18.31
9855;BME280;4966;48.112;9.282;2023-06-24T12:42:21;95384.72;;;36.05;19.67
9855;BME280;4966;48.112;9.282;2023-06-24T12:44:46;95377.72;;;36.50;17.75
9855;BME280;4966;48.112;9.282;2023-06-24T12:47:12;95382.03;;;35.42;18.38
9855;BME280;4966;48.112;9.282;2023-06-24T12:49:37;95374.88;;;36.50;19.63
9855;BME280;4966;48.112;9.282;2023-06-24T12:52:02;95384.56;;;37.14;17.00
9855;BME280;4966;48.112;9.282;2023-06-24T12:54:27;95380.38;;;37.10;18.07
9855;BME280;4966;48.112;9.282;2023-06-24T12:56:53;95383.31;;;38.14;19.14
9855;BME280;4966;48.112;9.282;2023-06-24T12:59:18;95382.88;;;38.53;19.56
9855;BME280;4966;48.112;9.282;2023-06-24T13:01:44;95380.81;;;38.22;17.86
9855;BME280;4966;48.112;9.282;2023-06-24T13:04:10;95379.53;;;38.28;16.66
9855;BME280;4966;48.112;9.282;2023-06-24T13:06:36;95373.69;;;37.80;16.38
9855;BME280;4966;48.112;9.282;2023-06-24T13:09:01;95380.53;;;38.57;17.66
9855;BME280;4966;48.112;9.282;2023-06-24T13:11:27;95372.50;;;38.93;16.58
9855;BME280;4966;48.112;9.282;2023-06-24T13:13:53;95368.31;;;37.87;16.15
9855;BME280;4966;48.112;9.282;2023-06-24T13:16:18;95371.84;;;39.15;16.41
9855;BME280;4966;48.112;9.282;2023-06-24T13:18:43;95366.94;;;39.21;17.70
9855;BME280;4966;48.112;9.282;2023-06-24T13:21:09;95361.72;;;40.42;14.59
9855;BME280;4966;48.112;9.282;2023-06-24T13:23:34;95358.88;;;40.02;14.96
9855;BME280;4966;48.112;9.282;2023-06-24T13:26:02;95364.06;;;40.15;15.24
9855;BME280;4966;48.112;9.282;2023-06-24T13:28:28;95360.28;;;39.41;16.05
9855;BME280;4966;48.112;9.282;2023-06-24T13:30:53;95355.72;;;39.61;16.60
9855;BME280;4966;48.112;9.282;2023-06-24T13:33:19;95350.59;;;40.44;14.92
9855;BME280;4966;48.112;9.282;2023-06-24T13:35:45;95353.91;;;40.65;14.26
9855;BME280;4966;48.112;9.282;2023-06-24T13:38:10;95356.09;;;37.76;15.71
9855;BME280;4966;48.112;9.282;2023-06-24T13:40:37;95355.31;;;36.67;16.40
9855;BME280;4966;48.112;9.282;2023-06-24T13:43:02;95350.66;;;37.72;16.61
9855;BME280;4966;48.112;9.282;2023-06-24T13:45:28;95349.19;;;38.08;16.83
9855;BME280;4966;48.112;9.282;2023-06-24T13:47:53;95346.19;;;39.92;14.45